sensor_id;sensor_type;location;lat;lon;timestamp;pressure;altitude;pressure_sealevel;temperature;humidity
75543;BME280;64129;53.508;10.476;2023-12-20T00:00:02;100541.38;;;5.47;91.86
75543;BME280;64129;53.508;10.476;2023-12-20T00:02:30;100537.00;;;5.44;92.64
75543;BME280;64129;53.508;10.476;2023-12-20T00:04:57;100542.25;;;5.47;92.45
75543;BME280;64129;53.508;10.476;2023-12-20T00:07:23;100542.91;;;5.31;91.85
75543;BME280;64129;53.508;10.476;2023-12-20T00:09:50;100535.88;;;5.24;91.86
75543;BME280;64129;53.508;10.476;2023-12-20T00:12:17;100534.09;;;5.20;92.32
75543;BME280;64129;53.508;10.476;2023-12-20T00:14:43;100533.09;;;5.11;92.05
75543;BME280;64129;53.508;10.476;2023-12-20T00:17:10;100541.03;;;5.21;92.58
75543;BME280;64129;53.508;10.476;2023-12-20T00:19:38;100531.63;;;5.30;91.60
75543;BME280;64129;53.508;10.476;2023-12-20T00:22:04;100531.38;;;5.12;91.80
75543;BME280;64129;53.508;10.476;2023-12-20T00:24:35;100540.16;;;5.19;92.08
75543;BME280;64129;53.508;10.476;2023-12-20T00:27:02;100524.31;;;5.03;92.85
75543;BME280;64129;53.508;10.476;2023-12-20T00:29:29;100532.16;;;5.06;91.88
75543;BME280;64129;53.508;10.476;2023-12-20T00:32:06;100535.56;;;5.02;92.52
75543;BME280;64129;53.508;10.476;2023-12-20T00:34:33;100528.63;;;5.00;92.50
75543;BME280;64129;53.508;10.476;2023-12-20T00:37:00;100532.03;;;4.96;91.16
75543;BME280;64129;53.508;10.476;2023-12-20T00:39:27;100531.19;;;4.98;91.70
75543;BME280;64129;53.508;10.476;2023-12-20T00:41:57;100517.16;;;4.87;92.12
75543;BME280;64129;53.508;10.476;2023-12-20T00:44:23;100523.94;;;4.77;91.96
75543;BME280;64129;53.508;10.476;2023-12-20T00:46:51;100517.03;;;4.79;92.25
75543;BME280;64129;53.508;10.476;2023-12-20T00:49:19;100506.75;;;4.87;92.13
75543;BME280;64129;53.508;10.476;2023-12-20T00:51:45;100516.88;;;4.67;92.56
75543;BME280;64129;53.508;10.476;2023-12-20T00:54:13;100521.53;;;4.90;91.83
75543;BME280;64129;53.508;10.476;2023-12-20T00:56:40;100519.41;;;4.64;91.89
75543;BME280;64129;53.508;10.476;2023-12-20T00:59:10;100509.09;;;4.70;92.34
75543;BME280;64129;53.508;10.476;2023-12-20T01:01:37;100512.41;;;4.60;91.65
75543;BME280;64129;53.508;10.476;2023-12-20T01:04:08;100503.75;;;4.59;91.90
75543;BME280;64129;53.508;10.476;2023-12-20T01:06:38;100513.25;;;4.57;92.12
75543;BME280;64129;53.508;10.476;2023-12-20T01:09:05;100511.31;;;4.44;93.54
75543;BME280;64129;53.508;10.476;2023-12-20T01:11:32;100518.25;;;4.47;92.79
75543;BME280;64129;53.508;10.476;2023-12-20T01:13:58;100507.94;;;4.50;92.74
75543;BME280;64129;53.508;10.476;2023-12-20T01:16:25;100508.09;;;4.60;93.20
75543;BME280;64129;53.508;10.476;2023-12-20T01:18:52;100503.00;;;4.68;92.93
75543;BME280;64129;53.508;10.476;2023-12-20T01:21:19;100507.28;;;4.63;93.14
75543;BME280;64129;53.508;10.476;2023-12-20T01:23:46;100502.88;;;4.60;92.82
75543;BME280;64129;53.508;10.476;2023-12-20T01:26:12;100497.66;;;4.57;92.82
75543;BME280;64129;53.508;10.476;2023-12-20T01:28:41;100495.88;;;4.55;93.07
75543;BME280;64129;53.508;10.476;2023-12-20T01:31:08;100496.88;;;4.65;93.11
75543;BME280;64129;53.508;10.476;2023-12-20T01:33:35;100489.28;;;4.77;92.64
75543;BME280;64129;53.508;10.476;2023-12-20T01:36:03;100494.28;;;4.65;93.39
75543;BME280;64129;53.508;10.476;2023-12-20T01:38:30;100489.16;;;4.68;93.36
75543;BME280;64129;53.508;10.476;2023-12-20T01:40:57;100490.84;;;4.66;92.85
75543;BME280;64129;53.508;10.476;2023-12-20T01:43:24;100487.41;;;4.67;92.70
75543;BME280;64129;53.508;10.476;2023-12-20T01:45:55;100481.25;;;4.61;93.68
75543;BME280;64129;53.508;10.476;2023-12-20T01:48:24;100489.94;;;4.62;93.00
75543;BME280;64129;53.508;10.476;2023-12-20T01:50:55;100483.09;;;4.70;93.22
75543;BME280;64129;53.508;10.476;2023-12-20T01:53:23;100486.50;;;4.65;92.72
75543;BME280;64129;53.508;10.476;2023-12-20T01:55:54;100477.81;;;4.64;93.06
75543;BME280;64129;53.508;10.476;2023-12-20T01:58:25;100476.88;;;4.57;93.32
75543;BME280;64129;53.508;10.476;2023-12-20T02:00:54;100478.34;;;4.42;93.55
75543;BME280;64129;53.508;10.476;2023-12-20T02:03:21;100464.47;;;4.40;93.15
75543;BME280;64129;53.508;10.476;2023-12-20T02:05:48;100464.69;;;4.53;93.01
75543;BME280;64129;53.508;10.476;2023-12-20T02:08:15;100463.81;;;4.54;92.34
75543;BME280;64129;53.508;10.476;2023-12-20T02:10:42;100461.69;;;4.29;92.98
75543;BME280;64129;53.508;10.476;2023-12-20T02:13:09;100462.00;;;4.49;93.10
75543;BME280;64129;53.508;10.476;2023-12-20T02:15:36;100465.19;;;4.32;93.15
75543;BME280;64129;53.508;10.476;2023-12-20T02:18:10;100463.63;;;4.42;92.79
75543;BME280;64129;53.508;10.476;2023-12-20T02:20:37;100462.66;;;4.35;93.14
75543;BME280;64129;53.508;10.476;2023-12-20T02:23:04;100463.69;;;4.45;92.94
75543;BME280;64129;53.508;10.476;2023-12-20T02:25:30;100456.56;;;4.33;94.03
75543;BME280;64129;53.508;10.476;2023-12-20T02:27:57;100455.81;;;4.41;93.83
75543;BME280;64129;53.508;10.476;2023-12-20T02:30:24;100443.56;;;4.33;93.49
75543;BME280;64129;53.508;10.476;2023-12-20T02:32:52;100441.00;;;4.35;93.30
75543;BME280;64129;53.508;10.476;2023-12-20T02:35:19;100439.28;;;4.35;94.19
75543;BME280;64129;53.508;10.476;2023-12-20T02:37:46;100441.09;;;4.40;93.23
75543;BME280;64129;53.508;10.476;2023-12-20T02:40:13;100439.41;;;4.45;93.24
75543;BME280;64129;53.508;10.476;2023-12-20T02:42:39;100431.69;;;4.48;93.05
75543;BME280;64129;53.508;10.476;2023-12-20T02:45:07;100433.28;;;4.40;93.21
75543;BME280;64129;53.508;10.476;2023-12-20T02:47:34;100431.63;;;4.43;93.85
75543;BME280;64129;53.508;10.476;2023-12-20T02:50:00;100428.16;;;4.44;93.06
75543;BME280;64129;53.508;10.476;2023-12-20T02:52:28;100428.88;;;4.35;93.53
75543;BME280;64129;53.508;10.476;2023-12-20T02:54:55;100420.25;;;4.37;93.06
75543;BME280;64129;53.508;10.476;2023-12-20T02:57:28;100418.56;;;4.42;92.91
75543;BME280;64129;53.508;10.476;2023-12-20T02:59:56;100426.56;;;4.54;93.31
75543;BME280;64129;53.508;10.476;2023-12-20T03:02:23;100417.72;;;4.41;93.00
75543;BME280;64129;53.508;10.476;2023-12-20T03:04:49;100425.63;;;4.50;93.58
75543;BME280;64129;53.508;10.476;2023-12-20T03:07:16;100417.78;;;4.47;93.70
75543;BME280;64129;53.508;10.476;2023-12-20T03:09:43;100417.06;;;4.56;92.61
75543;BME280;64129;53.508;10.476;2023-12-20T03:12:12;100408.25;;;4.45;93.42
75543;BME280;64129;53.508;10.476;2023-12-20T03:14:41;100406.53;;;4.47;92.37
75543;BME280;64129;53.508;10.476;2023-12-20T03:17:11;100403.94;;;4.47;92.68
75543;BME280;64129;53.508;10.476;2023-12-20T03:19:38;100400.56;;;4.52;93.09
75543;BME280;64129;53.508;10.476;2023-12-20T03:22:05;100401.53;;;4.60;91.98
75543;BME280;64129;53.508;10.476;2023-12-20T03:24:32;100390.19;;;4.54;91.94
75543;BME280;64129;53.508;10.476;2023-12-20T03:26:59;100384.84;;;4.43;92.81
75543;BME280;64129;53.508;10.476;2023-12-20T03:29:29;100384.97;;;4.54;92.32
75543;BME280;64129;53.508;10.476;2023-12-20T03:31:55;100382.44;;;4.57;92.60
75543;BME280;64129;53.508;10.476;2023-12-20T03:34:22;100378.84;;;4.49;92.41
75543;BME280;64129;53.508;10.476;2023-12-20T03:36:49;100377.13;;;4.49;92.43
75543;BME280;64129;53.508;10.476;2023-12-20T03:39:16;100381.47;;;4.50;92.98
75543;BME280;64129;53.508;10.476;2023-12-20T03:41:47;100374.53;;;4.51;91.87
75543;BME280;64129;53.508;10.476;2023-12-20T03:44:14;100372.84;;;4.54;92.61
75543;BME280;64129;53.508;10.476;2023-12-20T03:46:43;100366.75;;;4.51;92.45
75543;BME280;64129;53.508;10.476;2023-12-20T03:49:12;100368.53;;;4.55;92.82
75543;BME280;64129;53.508;10.476;2023-12-20T03:51:39;100363.31;;;4.53;92.75
75543;BME280;64129;53.508;10.476;2023-12-20T03:54:05;100366.78;;;4.54;92.05
75543;BME280;64129;53.508;10.476;2023-12-20T03:56:32;100366.81;;;4.55;92.32
75543;BME280;64129;53.508;10.476;2023-12-20T03:58:59;100355.47;;;4.52;91.99
75543;BME280;64129;53.508;10.476;2023-12-20T04:01:27;100359.06;;;4.58;91.21
75543;BME280;64129;53.508;10.476;2023-12-20T04:03:54;100349.53;;;4.59;92.29
75543;BME280;64129;53.508;10.476;2023-12-20T04:06:21;100350.28;;;4.50;92.62
75543;BME280;64129;53.508;10.476;2023-12-20T04:08:48;100349.41;;;4.50;91.80
75543;BME280;64129;53.508;10.476;2023-12-20T04:11:15;100348.59;;;4.55;91.64
75543;BME280;64129;53.508;10.476;2023-12-20T04:13:41;100344.31;;;4.59;92.67
75543;BME280;64129;53.508;10.476;2023-12-20T04:16:08;100330.41;;;4.52;91.82
75543;BME280;64129;53.508;10.476;2023-12-20T04:18:35;100335.69;;;4.60;92.42
75543;BME280;64129;53.508;10.476;2023-12-20T04:21:03;100331.22;;;4.50;92.42
75543;BME280;64129;53.508;10.476;2023-12-20T04:23:32;100319.97;;;4.51;92.56
75543;BME280;64129;53.508;10.476;2023-12-20T04:25:58;100326.94;;;4.53;92.25
75543;BME280;64129;53.508;10.476;2023-12-20T04:28:26;100316.50;;;4.50;92.20
75543;BME280;64129;53.508;10.476;2023-12-20T04:30:53;100324.34;;;4.55;92.62
75543;BME280;64129;53.508;10.476;2023-12-20T04:33:25;100320.00;;;4.54;92.42
75543;BME280;64129;53.508;10.476;2023-12-20T04:35:55;100320.06;;;4.57;92.24
75543;BME280;64129;53.508;10.476;2023-12-20T04:38:22;100316.50;;;4.52;91.97
75543;BME280;64129;53.508;10.476;2023-12-20T04:40:51;100312.28;;;4.61;92.00
75543;BME280;64129;53.508;10.476;2023-12-20T04:43:18;100304.44;;;4.55;91.87
75543;BME280;64129;53.508;10.476;2023-12-20T04:45:45;100300.13;;;4.57;91.71
75543;BME280;64129;53.508;10.476;2023-12-20T04:48:14;100289.69;;;4.56;92.82
75543;BME280;64129;53.508;10.476;2023-12-20T04:50:41;100281.91;;;4.56;92.67
75543;BME280;64129;53.508;10.476;2023-12-20T04:53:10;100286.22;;;4.55;92.37
75543;BME280;64129;53.508;10.476;2023-12-20T04:55:39;100275.88;;;4.57;92.63
75543;BME280;64129;53.508;10.476;2023-12-20T04:58:10;100271.56;;;4.57;91.52
75543;BME280;64129;53.508;10.476;2023-12-20T05:00:37;100275.03;;;4.61;92.07
75543;BME280;64129;53.508;10.476;2023-12-20T05:03:04;100285.31;;;4.50;92.11
75543;BME280;64129;53.508;10.476;2023-12-20T05:05:38;100275.91;;;4.61;91.59
75543;BME280;64129;53.508;10.476;2023-12-20T05:08:11;100278.44;;;4.54;92.32
75543;BME280;64129;53.508;10.476;2023-12-20T05:10:38;100274.16;;;4.59;92.49
75543;BME280;64129;53.508;10.476;2023-12-20T05:13:08;100272.38;;;4.56;92.23
75543;BME280;64129;53.508;10.476;2023-12-20T05:15:35;100282.88;;;4.63;92.00
75543;BME280;64129;53.508;10.476;2023-12-20T05:18:01;100277.56;;;4.56;92.31
75543;BME280;64129;53.508;10.476;2023-12-20T05:20:28;100278.47;;;4.57;92.22
75543;BME280;64129;53.508;10.476;2023-12-20T05:22:55;100282.81;;;4.59;92.04
75543;BME280;64129;53.508;10.476;2023-12-20T05:25:22;100264.72;;;4.69;91.76
75543;BME280;64129;53.508;10.476;2023-12-20T05:27:52;100261.22;;;4.65;92.33
75543;BME280;64129;53.508;10.476;2023-12-20T05:30:19;100263.06;;;4.74;91.83
75543;BME280;64129;53.508;10.476;2023-12-20T05:32:45;100264.63;;;4.61;92.12
75543;BME280;64129;53.508;10.476;2023-12-20T05:35:12;100267.44;;;4.78;91.55
75543;BME280;64129;53.508;10.476;2023-12-20T05:37:39;100269.06;;;4.70;92.26
75543;BME280;64129;53.508;10.476;2023-12-20T05:40:07;100269.19;;;4.79;91.60
75543;BME280;64129;53.508;10.476;2023-12-20T05:42:37;100263.97;;;4.76;91.05
75543;BME280;64129;53.508;10.476;2023-12-20T05:45:05;100266.63;;;4.83;91.20
75543;BME280;64129;53.508;10.476;2023-12-20T05:47:32;100268.34;;;4.83;92.00
75543;BME280;64129;53.508;10.476;2023-12-20T05:49:59;100264.94;;;4.87;91.16
75543;BME280;64129;53.508;10.476;2023-12-20T05:52:28;100262.25;;;4.79;91.68
75543;BME280;64129;53.508;10.476;2023-12-20T05:54:57;100255.31;;;4.78;91.54
75543;BME280;64129;53.508;10.476;2023-12-20T05:57:30;100251.03;;;4.82;91.47
75543;BME280;64129;53.508;10.476;2023-12-20T05:59:57;100238.06;;;4.88;91.59
75543;BME280;64129;53.508;10.476;2023-12-20T06:02:24;100248.47;;;4.85;91.41
75543;BME280;64129;53.508;10.476;2023-12-20T06:04:53;100233.69;;;4.84;91.15
75543;BME280;64129;53.508;10.476;2023-12-20T06:07:25;100244.13;;;4.87;90.53
75543;BME280;64129;53.508;10.476;2023-12-20T06:09:52;100238.03;;;4.82;91.10
75543;BME280;64129;53.508;10.476;2023-12-20T06:12:19;100237.09;;;4.80;92.17
75543;BME280;64129;53.508;10.476;2023-12-20T06:14:46;100246.69;;;4.84;91.80
75543;BME280;64129;53.508;10.476;2023-12-20T06:17:12;100238.88;;;4.82;91.98
75543;BME280;64129;53.508;10.476;2023-12-20T06:19:42;100243.25;;;4.85;92.31
75543;BME280;64129;53.508;10.476;2023-12-20T06:22:11;100234.59;;;4.86;92.28
75543;BME280;64129;53.508;10.476;2023-12-20T06:24:38;100241.53;;;4.85;92.36
75543;BME280;64129;53.508;10.476;2023-12-20T06:27:05;100231.94;;;4.83;92.42
75543;BME280;64129;53.508;10.476;2023-12-20T06:29:32;100226.75;;;4.81;92.60
75543;BME280;64129;53.508;10.476;2023-12-20T06:31:58;100226.75;;;4.84;92.21
75543;BME280;64129;53.508;10.476;2023-12-20T06:34:26;100226.78;;;4.86;92.63
75543;BME280;64129;53.508;10.476;2023-12-20T06:36:53;100216.41;;;4.88;91.02
75543;BME280;64129;53.508;10.476;2023-12-20T06:39:22;100213.75;;;4.84;91.04
75543;BME280;64129;53.508;10.476;2023-12-20T06:41:48;100211.16;;;4.83;91.38
75543;BME280;64129;53.508;10.476;2023-12-20T06:44:15;100199.94;;;4.85;90.26
75543;BME280;64129;53.508;10.476;2023-12-20T06:46:44;100199.88;;;4.84;91.50
75543;BME280;64129;53.508;10.476;2023-12-20T06:49:14;100200.75;;;4.84;91.12
75543;BME280;64129;53.508;10.476;2023-12-20T06:51:42;100199.88;;;4.84;90.96
75543;BME280;64129;53.508;10.476;2023-12-20T06:54:10;100190.34;;;4.83;90.86
75543;BME280;64129;53.508;10.476;2023-12-20T06:56:36;100186.88;;;4.81;91.26
75543;BME280;64129;53.508;10.476;2023-12-20T06:59:03;100190.41;;;4.86;91.38
75543;BME280;64129;53.508;10.476;2023-12-20T07:01:30;100192.09;;;4.84;90.86
75543;BME280;64129;53.508;10.476;2023-12-20T07:03:57;100207.72;;;4.85;90.48
75543;BME280;64129;53.508;10.476;2023-12-20T07:06:24;100191.28;;;4.88;90.62
75543;BME280;64129;53.508;10.476;2023-12-20T07:08:53;100186.06;;;4.86;90.38
75543;BME280;64129;53.508;10.476;2023-12-20T07:11:23;100189.63;;;4.95;90.92
75543;BME280;64129;53.508;10.476;2023-12-20T07:13:50;100182.59;;;4.86;91.04
75543;BME280;64129;53.508;10.476;2023-12-20T07:16:23;100177.44;;;4.92;90.18
75543;BME280;64129;53.508;10.476;2023-12-20T07:18:51;100178.31;;;4.91;90.69
75543;BME280;64129;53.508;10.476;2023-12-20T07:21:19;100180.91;;;4.91;90.73
75543;BME280;64129;53.508;10.476;2023-12-20T07:23:47;100186.94;;;4.89;91.83
75543;BME280;64129;53.508;10.476;2023-12-20T07:26:15;100186.09;;;4.90;90.43
75543;BME280;64129;53.508;10.476;2023-12-20T07:28:42;100173.97;;;4.93;90.16
75543;BME280;64129;53.508;10.476;2023-12-20T07:31:09;100177.41;;;4.89;90.87
75543;BME280;64129;53.508;10.476;2023-12-20T07:33:37;100171.34;;;4.87;90.72
75543;BME280;64129;53.508;10.476;2023-12-20T07:36:05;100183.53;;;4.96;90.46
75543;BME280;64129;53.508;10.476;2023-12-20T07:38:32;100181.84;;;5.01;90.58
75543;BME280;64129;53.508;10.476;2023-12-20T07:41:09;100184.41;;;4.96;90.35
75543;BME280;64129;53.508;10.476;2023-12-20T07:43:36;100184.41;;;4.95;91.16
75543;BME280;64129;53.508;10.476;2023-12-20T07:46:06;100174.88;;;4.95;90.28
75543;BME280;64129;53.508;10.476;2023-12-20T07:48:35;100164.47;;;4.98;90.00
75543;BME280;64129;53.508;10.476;2023-12-20T07:51:03;100167.94;;;4.97;90.39
75543;BME280;64129;53.508;10.476;2023-12-20T07:53:34;100166.25;;;4.99;90.50
75543;BME280;64129;53.508;10.476;2023-12-20T07:56:01;100163.69;;;5.05;89.58
75543;BME280;64129;53.508;10.476;2023-12-20T07:58:28;100166.38;;;5.15;90.01
75543;BME280;64129;53.508;10.476;2023-12-20T08:01:02;100162.84;;;5.11;89.30
75543;BME280;64129;53.508;10.476;2023-12-20T08:03:29;100153.34;;;5.15;89.32
75543;BME280;64129;53.508;10.476;2023-12-20T08:05:56;100156.78;;;5.10;90.53
75543;BME280;64129;53.508;10.476;2023-12-20T08:08:26;100163.75;;;5.15;90.03
75543;BME280;64129;53.508;10.476;2023-12-20T08:10:53;100157.69;;;5.14;90.16
75543;BME280;64129;53.508;10.476;2023-12-20T08:13:20;100154.25;;;5.21;89.90
75543;BME280;64129;53.508;10.476;2023-12-20T08:15:52;100164.63;;;5.15;90.24
75543;BME280;64129;53.508;10.476;2023-12-20T08:18:19;100157.69;;;5.16;90.69
75543;BME280;64129;53.508;10.476;2023-12-20T08:20:45;100162.06;;;5.20;89.49
75543;BME280;64129;53.508;10.476;2023-12-20T08:23:13;100144.72;;;5.19;89.91
75543;BME280;64129;53.508;10.476;2023-12-20T08:25:42;100132.56;;;5.21;89.75
75543;BME280;64129;53.508;10.476;2023-12-20T08:28:09;100132.53;;;5.16;90.30
75543;BME280;64129;53.508;10.476;2023-12-20T08:30:36;100123.94;;;5.23;89.83
75543;BME280;64129;53.508;10.476;2023-12-20T08:33:08;100118.69;;;5.22;89.31
75543;BME280;64129;53.508;10.476;2023-12-20T08:35:39;100121.31;;;5.22;90.71
75543;BME280;64129;53.508;10.476;2023-12-20T08:38:06;100130.88;;;5.23;90.21
75543;BME280;64129;53.508;10.476;2023-12-20T08:40:33;100117.00;;;5.22;90.12
75543;BME280;64129;53.508;10.476;2023-12-20T08:43:03;100113.53;;;5.25;89.33
75543;BME280;64129;53.508;10.476;2023-12-20T08:45:37;100110.97;;;5.28;88.93
75543;BME280;64129;53.508;10.476;2023-12-20T08:48:06;100092.78;;;5.32;89.19
75543;BME280;64129;53.508;10.476;2023-12-20T08:50:34;100104.88;;;5.30;89.00
75543;BME280;64129;53.508;10.476;2023-12-20T08:53:01;100099.75;;;5.36;89.15
75543;BME280;64129;53.508;10.476;2023-12-20T08:55:28;100086.72;;;5.40;90.36
75543;BME280;64129;53.508;10.476;2023-12-20T08:57:59;100116.22;;;5.40;89.55
75543;BME280;64129;53.508;10.476;2023-12-20T09:00:26;100083.25;;;5.41;89.51
75543;BME280;64129;53.508;10.476;2023-12-20T09:02:54;100085.88;;;5.37;89.49
75543;BME280;64129;53.508;10.476;2023-12-20T09:05:24;100083.31;;;5.50;88.93
75543;BME280;64129;53.508;10.476;2023-12-20T09:07:50;100069.41;;;5.43;89.77
75543;BME280;64129;53.508;10.476;2023-12-20T09:10:26;100060.75;;;5.47;89.92
75543;BME280;64129;53.508;10.476;2023-12-20T09:12:53;100067.72;;;5.54;90.00
75543;BME280;64129;53.508;10.476;2023-12-20T09:15:25;100059.88;;;5.48;89.17
75543;BME280;64129;53.508;10.476;2023-12-20T09:17:54;100066.78;;;5.45;89.38
75543;BME280;64129;53.508;10.476;2023-12-20T09:20:21;100061.63;;;5.49;89.12
75543;BME280;64129;53.508;10.476;2023-12-20T09:22:50;100069.44;;;5.48;89.99
75543;BME280;64129;53.508;10.476;2023-12-20T09:25:19;100079.88;;;5.51;89.77
75543;BME280;64129;53.508;10.476;2023-12-20T09:27:52;100075.47;;;5.44;90.13
75543;BME280;64129;53.508;10.476;2023-12-20T09:30:19;100064.19;;;5.42;91.49
75543;BME280;64129;53.508;10.476;2023-12-20T09:32:47;100067.63;;;5.34;91.54
75543;BME280;64129;53.508;10.476;2023-12-20T09:35:14;100061.56;;;5.34;91.46
75543;BME280;64129;53.508;10.476;2023-12-20T09:37:41;100074.53;;;5.31;91.78
75543;BME280;64129;53.508;10.476;2023-12-20T09:40:13;100072.81;;;5.28;91.51
75543;BME280;64129;53.508;10.476;2023-12-20T09:42:48;100080.53;;;5.15;91.00
75543;BME280;64129;53.508;10.476;2023-12-20T09:45:20;100087.38;;;5.03;91.12
75543;BME280;64129;53.508;10.476;2023-12-20T09:47:48;100071.72;;;4.97;91.04
75543;BME280;64129;53.508;10.476;2023-12-20T09:50:18;100079.47;;;4.88;90.61
75543;BME280;64129;53.508;10.476;2023-12-20T09:52:51;100083.94;;;5.04;90.64
75543;BME280;64129;53.508;10.476;2023-12-20T09:55:19;100095.94;;;4.87;91.61
75543;BME280;64129;53.508;10.476;2023-12-20T09:57:47;100072.56;;;4.90;91.49
75543;BME280;64129;53.508;10.476;2023-12-20T10:00:15;100085.63;;;5.02;91.03
75543;BME280;64129;53.508;10.476;2023-12-20T10:02:57;100068.28;;;5.00;90.39
75543;BME280;64129;53.508;10.476;2023-12-20T10:05:33;100069.25;;;5.14;90.46
75543;BME280;64129;53.508;10.476;2023-12-20T10:08:01;100083.97;;;5.10;90.27
75543;BME280;64129;53.508;10.476;2023-12-20T10:10:28;100078.72;;;5.07;90.92
75543;BME280;64129;53.508;10.476;2023-12-20T10:13:08;100077.84;;;5.05;90.88
75543;BME280;64129;53.508;10.476;2023-12-20T10:15:37;100071.81;;;5.09;90.82
75543;BME280;64129;53.508;10.476;2023-12-20T10:18:07;100083.06;;;5.04;89.78
75543;BME280;64129;53.508;10.476;2023-12-20T10:20:34;100052.75;;;5.12;90.01
75543;BME280;64129;53.508;10.476;2023-12-20T10:23:03;100071.72;;;4.99;90.02
75543;BME280;64129;53.508;10.476;2023-12-20T10:25:30;100058.84;;;5.14;89.45
75543;BME280;64129;53.508;10.476;2023-12-20T10:28:14;100048.44;;;5.14;88.74
75543;BME280;64129;53.508;10.476;2023-12-20T10:30:44;100042.38;;;5.17;90.92
75543;BME280;64129;53.508;10.476;2023-12-20T10:33:23;100065.75;;;5.12;90.11
75543;BME280;64129;53.508;10.476;2023-12-20T10:35:50;100092.59;;;5.08;89.73
75543;BME280;64129;53.508;10.476;2023-12-20T10:38:17;100112.56;;;5.10;90.04
75543;BME280;64129;53.508;10.476;2023-12-20T10:40:45;100104.72;;;5.04;89.43
75543;BME280;64129;53.508;10.476;2023-12-20T10:43:12;100103.88;;;5.04;89.27
75543;BME280;64129;53.508;10.476;2023-12-20T10:45:41;100101.22;;;5.01;88.92
75543;BME280;64129;53.508;10.476;2023-12-20T10:48:12;100088.25;;;5.04;87.98
75543;BME280;64129;53.508;10.476;2023-12-20T10:50:43;100091.69;;;5.03;88.34
75543;BME280;64129;53.508;10.476;2023-12-20T10:53:11;100071.75;;;5.02;87.54
75543;BME280;64129;53.508;10.476;2023-12-20T10:55:39;100068.25;;;4.95;88.05
75543;BME280;64129;53.508;10.476;2023-12-20T10:58:08;100070.16;;;5.22;87.72
75543;BME280;64129;53.508;10.476;2023-12-20T11:00:39;100072.75;;;5.19;87.97
75543;BME280;64129;53.508;10.476;2023-12-20T11:03:17;100073.66;;;5.29;88.02
75543;BME280;64129;53.508;10.476;2023-12-20T11:05:53;100079.63;;;5.11;87.25
75543;BME280;64129;53.508;10.476;2023-12-20T11:08:36;100081.28;;;5.03;85.54
75543;BME280;64129;53.508;10.476;2023-12-20T11:11:28;100066.63;;;5.09;87.65
75543;BME280;64129;53.508;10.476;2023-12-20T11:14:02;100068.28;;;5.00;86.67
75543;BME280;64129;53.508;10.476;2023-12-20T11:16:33;100069.97;;;4.92;86.60
75543;BME280;64129;53.508;10.476;2023-12-20T11:19:07;100067.41;;;4.95;86.49
75543;BME280;64129;53.508;10.476;2023-12-20T11:21:36;100056.09;;;4.91;86.62
75543;BME280;64129;53.508;10.476;2023-12-20T11:24:03;100054.38;;;4.96;88.37
75543;BME280;64129;53.508;10.476;2023-12-20T11:26:31;100060.41;;;4.86;87.10
75543;BME280;64129;53.508;10.476;2023-12-20T11:29:36;100056.06;;;4.85;86.85
75543;BME280;64129;53.508;10.476;2023-12-20T11:32:04;100050.00;;;4.86;87.78
75543;BME280;64129;53.508;10.476;2023-12-20T11:34:55;100069.81;;;4.73;88.17
75543;BME280;64129;53.508;10.476;2023-12-20T11:37:31;100069.97;;;4.92;89.05
75543;BME280;64129;53.508;10.476;2023-12-20T11:40:12;100072.47;;;4.76;90.56
75543;BME280;64129;53.508;10.476;2023-12-20T11:42:39;100084.56;;;4.71;90.18
75543;BME280;64129;53.508;10.476;2023-12-20T11:45:15;100085.31;;;4.59;90.13
75543;BME280;64129;53.508;10.476;2023-12-20T11:47:43;100093.13;;;4.63;89.79
75543;BME280;64129;53.508;10.476;2023-12-20T11:50:14;100064.38;;;4.44;89.34
75543;BME280;64129;53.508;10.476;2023-12-20T11:52:41;100080.88;;;4.51;88.26
75543;BME280;64129;53.508;10.476;2023-12-20T11:55:08;100073.88;;;4.42;89.56
75543;BME280;64129;53.508;10.476;2023-12-20T11:57:35;100087.78;;;4.47;89.65
75543;BME280;64129;53.508;10.476;2023-12-20T12:00:03;100083.38;;;4.37;89.21
75543;BME280;64129;53.508;10.476;2023-12-20T12:02:38;100074.66;;;4.30;89.25
75543;BME280;64129;53.508;10.476;2023-12-20T12:05:05;100067.06;;;4.53;89.90
75543;BME280;64129;53.508;10.476;2023-12-20T12:07:34;100057.47;;;4.46;89.66
75543;BME280;64129;53.508;10.476;2023-12-20T12:10:02;100050.56;;;4.51;90.08
75543;BME280;64129;53.508;10.476;2023-12-20T12:12:30;100056.63;;;4.50;89.01
75543;BME280;64129;53.508;10.476;2023-12-20T12:15:00;100059.31;;;4.59;90.57
75543;BME280;64129;53.508;10.476;2023-12-20T12:17:27;100067.06;;;4.55;89.30
75543;BME280;64129;53.508;10.476;2023-12-20T12:20:02;100061.94;;;4.63;89.28
75543;BME280;64129;53.508;10.476;2023-12-20T12:22:31;100051.56;;;4.64;89.75
75543;BME280;64129;53.508;10.476;2023-12-20T12:25:10;100062.75;;;4.52;89.24
75543;BME280;64129;53.508;10.476;2023-12-20T12:27:41;100056.69;;;4.53;89.47
75543;BME280;64129;53.508;10.476;2023-12-20T12:30:08;100052.34;;;4.52;90.50
75543;BME280;64129;53.508;10.476;2023-12-20T12:32:36;100038.56;;;4.63;89.74
75543;BME280;64129;53.508;10.476;2023-12-20T12:35:04;100056.00;;;4.76;89.42
75543;BME280;64129;53.508;10.476;2023-12-20T12:37:38;100042.94;;;4.67;90.04
75543;BME280;64129;53.508;10.476;2023-12-20T12:40:13;100032.47;;;4.59;90.11
75543;BME280;64129;53.508;10.476;2023-12-20T12:42:44;100038.63;;;4.75;89.16
75543;BME280;64129;53.508;10.476;2023-12-20T12:45:12;100040.31;;;4.70;89.05
75543;BME280;64129;53.508;10.476;2023-12-20T12:47:39;100037.00;;;4.86;89.50
75543;BME280;64129;53.508;10.476;2023-12-20T12:50:07;100046.44;;;4.75;89.95
75543;BME280;64129;53.508;10.476;2023-12-20T12:52:33;100034.41;;;4.86;89.59
75543;BME280;64129;53.508;10.476;2023-12-20T12:55:01;100044.00;;;4.96;88.68
75543;BME280;64129;53.508;10.476;2023-12-20T12:57:33;100033.59;;;4.96;90.04